Time;durP1;ratioP1;P1;durP2;ratioP2;P2;SDS_P1;SDS_P2;PMS_P1;PMS_P2;Temp;Humidity;BMP_temperature;BMP_pressure;BME280_temperature;BME280_humidity;BME280_pressure;Samples;Min_cycle;Max_cycle;Signal;HPM_P1;HPM_P2
2024/01/10 00:00:12;;;;;;;;;;;10.50;61.20;;;;;;6275695;22;19906;-69
2024/01/10 00:02:37;;;;;;;;;;;10.50;60.80;;;;;;6275880;22;19915;-77
2024/01/10 00:05:03;;;;;;;;;;;10.50;61.20;;;;;;6275652;22;19956;-77
2024/01/10 00:07:29;;;;;;;;;;;10.40;60.20;;;;;;6275627;22;19982;-77
2024/01/10 00:09:55;;;;;;;;;;;10.50;61.30;;;;;;6275514;22;20392;-77
2024/01/10 00:12:21;;;;;;;;;;;10.50;61.60;;;;;;6275539;22;19915;-77
2024/01/10 00:14:46;;;;;;;;;;;10.40;61.50;;;;;;6275536;22;19904;-78
2024/01/10 00:17:12;;;;;;;;;;;10.50;61.60;;;;;;6275677;22;19910;-78
2024/01/10 00:19:37;;;;;;;;;;;10.50;61.30;;;;;;6275854;22;19903;-78
2024/01/10 00:22:03;;;;;;;;;;;10.50;61.40;;;;;;6277694;22;19982;-77
2024/01/10 00:24:28;;;;;;;;;;;10.40;60.80;;;;;;6278085;22;19903;-77
2024/01/10 00:26:55;;;;;;;;;;;10.40;61.40;;;;;;6277709;22;19903;-77
2024/01/10 00:29:21;;;;;;;;;;;10.50;61.40;;;;;;6277852;22;19915;-77
2024/01/10 00:31:46;;;;;;;;;;;10.40;61.50;;;;;;6278215;22;19903;-69
2024/01/10 00:34:11;;;;;;;;;;;10.50;61.60;;;;;;6277593;22;19903;-69
2024/01/10 00:36:37;;;;;;;;;;;10.70;61.60;;;;;;6277624;22;19910;-69
2024/01/10 00:39:02;;;;;;;;;;;10.50;61.60;;;;;;6277552;22;19947;-69
2024/01/10 00:41:28;;;;;;;;;;;10.70;61.10;;;;;;6277491;22;19903;-69
2024/01/10 00:43:53;;;;;;;;;;;10.70;61.60;;;;;;6277616;22;19978;-69
2024/01/10 00:46:19;;;;;;;;;;;10.40;61.60;;;;;;6277462;22;19926;-69
2024/01/10 00:48:44;;;;;;;;;;;10.50;61.30;;;;;;6277448;22;19919;-69
2024/01/10 00:51:10;;;;;;;;;;;10.70;61.60;;;;;;6277360;22;19908;-69
2024/01/10 00:53:35;;;;;;;;;;;10.50;61.30;;;;;;6277475;22;19982;-69
2024/01/10 00:56:01;;;;;;;;;;;10.50;61.40;;;;;;6277354;22;19904;-69
2024/01/10 00:58:26;;;;;;;;;;;10.50;61.30;;;;;;6277377;22;20299;-69
2024/01/10 01:00:52;;;;;;;;;;;10.40;60.80;;;;;;6277986;22;19903;-69
2024/01/10 01:03:17;;;;;;;;;;;10.40;61.10;;;;;;6277025;22;19937;-69
2024/01/10 01:05:43;;;;;;;;;;;10.50;61.60;;;;;;6277380;22;20329;-69
2024/01/10 01:08:08;;;;;;;;;;;10.30;61.30;;;;;;6277834;22;19915;-69
2024/01/10 01:10:34;;;;;;;;;;;10.50;61.70;;;;;;6277340;22;19904;-69
2024/01/10 01:12:59;;;;;;;;;;;10.40;61.30;;;;;;6277229;22;19903;-69
2024/01/10 01:15:25;;;;;;;;;;;10.40;60.80;;;;;;6277030;22;20290;-69
2024/01/10 01:17:50;;;;;;;;;;;10.40;60.20;;;;;;6277093;22;19990;-69
2024/01/10 01:20:16;;;;;;;;;;;10.50;61.20;;;;;;6277175;22;19907;-69
2024/01/10 01:22:41;;;;;;;;;;;10.40;60.60;;;;;;6277153;22;19908;-69
2024/01/10 01:25:07;;;;;;;;;;;10.40;61.00;;;;;;6277084;22;19963;-69
2024/01/10 01:27:33;;;;;;;;;;;10.40;59.20;;;;;;6277186;22;19982;-69
2024/01/10 01:29:58;;;;;;;;;;;10.40;60.70;;;;;;6277564;22;20311;-69
2024/01/10 01:32:23;;;;;;;;;;;10.40;60.90;;;;;;6276770;22;19910;-69
2024/01/10 01:34:49;;;;;;;;;;;10.40;61.00;;;;;;6277085;22;19904;-70
2024/01/10 01:37:15;;;;;;;;;;;10.60;60.80;;;;;;6276881;22;19903;-69
2024/01/10 01:39:40;;;;;;;;;;;10.30;60.90;;;;;;6277057;22;19961;-69
2024/01/10 01:42:06;;;;;;;;;;;10.40;60.90;;;;;;6277083;22;19904;-69
2024/01/10 01:44:31;;;;;;;;;;;10.40;60.80;;;;;;6276982;22;20327;-70
2024/01/10 01:46:57;;;;;;;;;;;10.90;61.10;;;;;;6276163;22;19903;-70
2024/01/10 01:49:24;;;;;;;;;;;10.30;60.80;;;;;;6276895;22;19915;-70
2024/01/10 01:51:50;;;;;;;;;;;9.10;60.10;;;;;;6277034;22;19907;-70
2024/01/10 01:54:15;;;;;;;;;;;10.30;60.90;;;;;;6276893;22;19904;-70
2024/01/10 01:56:42;;;;;;;;;;;10.30;60.80;;;;;;6277389;22;19908;-77
2024/01/10 01:59:08;;;;;;;;;;;10.30;61.10;;;;;;6277023;22;20380;-77
2024/01/10 02:01:34;;;;;;;;;;;10.30;60.80;;;;;;6276728;22;19903;-77
2024/01/10 02:04:00;;;;;;;;;;;10.30;61.10;;;;;;6276774;22;19939;-77
2024/01/10 02:06:26;;;;;;;;;;;10.30;61.00;;;;;;6277282;22;19910;-77
2024/01/10 02:08:52;;;;;;;;;;;10.30;60.90;;;;;;6276995;22;19911;-78
2024/01/10 02:11:18;;;;;;;;;;;10.40;60.80;;;;;;6277465;22;19949;-78
2024/01/10 02:13:43;;;;;;;;;;;10.30;61.20;;;;;;6276973;22;19915;-78
2024/01/10 02:16:09;;;;;;;;;;;10.30;60.80;;;;;;6276828;22;19903;-77
2024/01/10 02:18:35;;;;;;;;;;;10.30;61.00;;;;;;6277316;22;19903;-78
2024/01/10 02:21:01;;;;;;;;;;;10.30;60.90;;;;;;6276730;22;19934;-78
2024/01/10 02:23:26;;;;;;;;;;;10.30;61.20;;;;;;6276739;22;19903;-78
2024/01/10 02:25:52;;;;;;;;;;;10.30;60.50;;;;;;6277202;22;20301;-78
2024/01/10 02:28:17;;;;;;;;;;;10.30;61.20;;;;;;6276399;22;19939;-78
2024/01/10 02:30:43;;;;;;;;;;;10.30;61.00;;;;;;6276630;22;19982;-78
2024/01/10 02:33:08;;;;;;;;;;;11.60;61.80;;;;;;6276595;22;19910;-78
2024/01/10 02:35:34;;;;;;;;;;;10.50;60.90;;;;;;6276406;22;19954;-78
2024/01/10 02:38:00;;;;;;;;;;;10.30;60.80;;;;;;6276489;22;19910;-78
2024/01/10 02:40:25;;;;;;;;;;;10.20;60.70;;;;;;6277192;22;19903;-78
2024/01/10 02:42:51;;;;;;;;;;;10.20;60.90;;;;;;6275949;22;19989;-78
2024/01/10 02:45:17;;;;;;;;;;;10.50;60.80;;;;;;6276554;22;20347;-78
2024/01/10 02:47:42;;;;;;;;;;;10.20;61.50;;;;;;6276536;22;19907;-78
2024/01/10 02:50:08;;;;;;;;;;;10.20;60.70;;;;;;6276671;22;19904;-78
2024/01/10 02:52:33;;;;;;;;;;;10.20;60.10;;;;;;6276939;22;20386;-78
2024/01/10 02:54:59;;;;;;;;;;;10.10;60.70;;;;;;6277244;22;19903;-78
2024/01/10 02:57:24;;;;;;;;;;;10.40;61.60;;;;;;6276648;22;19925;-78
2024/01/10 02:59:50;;;;;;;;;;;10.20;60.80;;;;;;6276607;22;20456;-78
2024/01/10 03:02:15;;;;;;;;;;;10.10;60.30;;;;;;6276392;22;19915;-78
2024/01/10 03:04:41;;;;;;;;;;;10.10;60.90;;;;;;6249788;22;19953;-78
2024/01/10 03:07:07;;;;;;;;;;;10.10;60.90;;;;;;6277001;22;20234;-78
2024/01/10 03:09:32;;;;;;;;;;;10.40;61.00;;;;;;6276448;22;19947;-78
2024/01/10 03:11:58;;;;;;;;;;;10.10;61.10;;;;;;6276478;22;19903;-78
2024/01/10 03:14:23;;;;;;;;;;;10.30;61.20;;;;;;6276699;22;19981;-78
2024/01/10 03:16:49;;;;;;;;;;;10.00;60.60;;;;;;6276279;22;19903;-78
2024/01/10 03:19:15;;;;;;;;;;;10.80;61.20;;;;;;6277131;22;19903;-78
2024/01/10 03:21:40;;;;;;;;;;;10.20;60.60;;;;;;6276931;22;19918;-78
2024/01/10 03:24:06;;;;;;;;;;;10.20;60.70;;;;;;6276892;22;19931;-78
2024/01/10 03:26:31;;;;;;;;;;;10.00;59.80;;;;;;6276820;22;19903;-78
2024/01/10 03:28:57;;;;;;;;;;;10.40;61.20;;;;;;6276242;22;20247;-78
2024/01/10 03:31:22;;;;;;;;;;;10.40;61.20;;;;;;6276422;22;19903;-78
2024/01/10 03:33:48;;;;;;;;;;;10.10;61.20;;;;;;6276301;22;20331;-78
2024/01/10 03:36:17;;;;;;;;;;;10.20;61.20;;;;;;6276326;22;19903;-78
2024/01/10 03:38:43;;;;;;;;;;;10.00;56.40;;;;;;6276759;22;19903;-78
2024/01/10 03:41:15;;;;;;;;;;;10.00;61.20;;;;;;6276251;22;19910;-78
2024/01/10 03:43:40;;;;;;;;;;;10.00;56.20;;;;;;6276379;22;20436;-78
2024/01/10 03:46:06;;;;;;;;;;;10.00;60.80;;;;;;6275904;22;19907;-78
2024/01/10 03:48:31;;;;;;;;;;;10.00;60.80;;;;;;6275742;22;20250;-78
2024/01/10 03:50:57;;;;;;;;;;;10.40;60.80;;;;;;6276541;22;19903;-77
2024/01/10 03:53:22;;;;;;;;;;;10.20;60.70;;;;;;6275681;22;19911;-78
2024/01/10 03:55:48;;;;;;;;;;;10.00;60.80;;;;;;6276526;22;19903;-77
2024/01/10 03:58:13;;;;;;;;;;;10.00;60.40;;;;;;6275903;22;19903;-78
2024/01/10 04:00:39;;;;;;;;;;;9.80;60.80;;;;;;6275734;22;19910;-77
2024/01/10 04:03:04;;;;;;;;;;;9.90;60.40;;;;;;6275240;22;19942;-70
2024/01/10 04:05:30;;;;;;;;;;;9.80;60.70;;;;;;6275456;22;19952;-70
2024/01/10 04:07:56;;;;;;;;;;;9.90;60.80;;;;;;6275259;22;20311;-70
2024/01/10 04:10:22;;;;;;;;;;;9.90;60.40;;;;;;6275936;22;19927;-70
2024/01/10 04:12:48;;;;;;;;;;;9.90;60.70;;;;;;6275320;22;20310;-70
2024/01/10 04:15:14;;;;;;;;;;;9.80;60.80;;;;;;6275423;22;19947;-70
2024/01/10 04:17:39;;;;;;;;;;;9.80;60.70;;;;;;6275349;22;20275;-70
2024/01/10 04:20:05;;;;;;;;;;;10.30;60.90;;;;;;6275889;22;19903;-70
2024/01/10 04:22:31;;;;;;;;;;;9.80;59.00;;;;;;6274758;22;20002;-70
2024/01/10 04:25:00;;;;;;;;;;;10.20;61.50;;;;;;6273783;22;19933;-70
2024/01/10 04:27:26;;;;;;;;;;;9.80;56.60;;;;;;6275239;22;19910;-70
2024/01/10 04:29:51;;;;;;;;;;;10.00;61.60;;;;;;6275187;22;19994;-70
2024/01/10 04:32:17;;;;;;;;;;;9.80;61.60;;;;;;6275408;22;19941;-70
2024/01/10 04:34:42;;;;;;;;;;;9.80;61.50;;;;;;6275308;22;20238;-70
2024/01/10 04:37:08;;;;;;;;;;;10.20;61.70;;;;;;6275218;22;19904;-70
2024/01/10 04:39:34;;;;;;;;;;;10.30;61.80;;;;;;6275339;22;19974;-70
2024/01/10 04:41:59;;;;;;;;;;;9.80;61.40;;;;;;6275162;22;19903;-70
2024/01/10 04:44:25;;;;;;;;;;;10.10;61.70;;;;;;6275886;22;19903;-70
2024/01/10 04:46:50;;;;;;;;;;;9.90;61.70;;;;;;6275254;22;20299;-70
2024/01/10 04:49:16;;;;;;;;;;;9.70;61.60;;;;;;6275744;22;19911;-70
2024/01/10 04:51:42;;;;;;;;;;;9.70;61.70;;;;;;6275075;22;20315;-70
2024/01/10 04:54:08;;;;;;;;;;;9.70;61.60;;;;;;6275326;22;20246;-70
2024/01/10 04:56:36;;;;;;;;;;;9.80;61.50;;;;;;6275748;22;19991;-70
2024/01/10 04:59:01;;;;;;;;;;;9.80;61.40;;;;;;6275327;22;20046;-70
2024/01/10 05:01:27;;;;;;;;;;;9.70;61.20;;;;;;6275206;22;19960;-70
2024/01/10 05:03:52;;;;;;;;;;;10.10;62.00;;;;;;6275349;22;20453;-70
2024/01/10 05:06:18;;;;;;;;;;;9.80;61.80;;;;;;6275801;22;19985;-70
2024/01/10 05:08:43;;;;;;;;;;;9.60;61.40;;;;;;6276944;22;19915;-70
2024/01/10 05:11:09;;;;;;;;;;;10.20;62.10;;;;;;6276944;22;19903;-70
2024/01/10 05:13:35;;;;;;;;;;;10.00;61.90;;;;;;6277163;22;20280;-70
2024/01/10 05:16:00;;;;;;;;;;;9.70;61.40;;;;;;6277558;22;19907;-70
2024/01/10 05:18:26;;;;;;;;;;;10.50;62.40;;;;;;6276887;22;19903;-70
2024/01/10 05:20:51;;;;;;;;;;;9.70;61.60;;;;;;6276823;22;19910;-70
2024/01/10 05:23:17;;;;;;;;;;;10.00;61.90;;;;;;6276898;22;19966;-70
2024/01/10 05:25:44;;;;;;;;;;;9.70;60.10;;;;;;6276526;22;20281;-70
2024/01/10 05:28:10;;;;;;;;;;;9.70;61.80;;;;;;6276736;22;20280;-70
2024/01/10 05:30:35;;;;;;;;;;;9.70;62.00;;;;;;6277127;22;19904;-70
2024/01/10 05:33:01;;;;;;;;;;;9.70;62.30;;;;;;6276875;22;19941;-70
2024/01/10 05:35:26;;;;;;;;;;;9.70;62.30;;;;;;6276856;22;19911;-70
2024/01/10 05:37:52;;;;;;;;;;;10.00;62.40;;;;;;6249559;22;20302;-70
2024/01/10 05:40:18;;;;;;;;;;;9.90;62.60;;;;;;6276765;22;20326;-70
2024/01/10 05:42:44;;;;;;;;;;;9.70;62.40;;;;;;6276757;22;19916;-70
2024/01/10 05:45:09;;;;;;;;;;;9.70;62.50;;;;;;6277229;22;19904;-70
2024/01/10 05:47:35;;;;;;;;;;;9.80;62.00;;;;;;6276749;22;19956;-70
2024/01/10 05:50:01;;;;;;;;;;;9.80;62.60;;;;;;6276662;22;19915;-70
2024/01/10 05:52:26;;;;;;;;;;;8.60;60.90;;;;;;6276654;22;19978;-70
2024/01/10 05:54:53;;;;;;;;;;;9.80;62.80;;;;;;6277047;22;19926;-70
2024/01/10 05:57:18;;;;;;;;;;;9.80;62.00;;;;;;6286867;22;20292;-70
2024/01/10 05:59:44;;;;;;;;;;;9.80;61.80;;;;;;6276520;22;19907;-70
2024/01/10 06:02:09;;;;;;;;;;;9.60;61.60;;;;;;6276312;22;19903;-70
2024/01/10 06:04:35;;;;;;;;;;;10.40;62.60;;;;;;6276625;22;19934;-70
2024/01/10 06:07:00;;;;;;;;;;;9.80;62.00;;;;;;6276709;22;19911;-70
2024/01/10 06:09:26;;;;;;;;;;;9.80;62.20;;;;;;6276323;22;19915;-70
2024/01/10 06:11:51;;;;;;;;;;;9.70;61.80;;;;;;6276422;22;19911;-70
2024/01/10 06:14:17;;;;;;;;;;;9.80;62.10;;;;;;6276504;22;20272;-70
2024/01/10 06:16:44;;;;;;;;;;;10.20;62.20;;;;;;6276272;22;19910;-70
2024/01/10 06:19:10;;;;;;;;;;;9.80;62.10;;;;;;6276447;22;19903;-70
2024/01/10 06:21:36;;;;;;;;;;;10.10;62.00;;;;;;6276642;22;20230;-69
2024/01/10 06:24:02;;;;;;;;;;;9.70;61.80;;;;;;6276283;22;20392;-71
2024/01/10 06:26:28;;;;;;;;;;;11.90;62.70;;;;;;6276256;22;19974;-70
2024/01/10 06:28:53;;;;;;;;;;;9.70;62.00;;;;;;6276153;22;19950;-78
2024/01/10 06:31:25;;;;;;;;;;;9.60;61.50;;;;;;6277989;22;19903;-70
2024/01/10 06:33:50;;;;;;;;;;;9.60;56.80;;;;;;6276171;22;19935;-70
2024/01/10 06:36:16;;;;;;;;;;;9.90;62.10;;;;;;6249003;22;19903;-70
2024/01/10 06:38:41;;;;;;;;;;;9.60;61.80;;;;;;6276104;22;19933;-69
2024/01/10 06:41:07;;;;;;;;;;;10.00;62.00;;;;;;6276103;22;19950;-70
2024/01/10 06:43:34;;;;;;;;;;;9.60;61.70;;;;;;6276145;22;19911;-70
2024/01/10 06:46:00;;;;;;;;;;;9.50;61.40;;;;;;6276095;22;19903;-70
2024/01/10 06:48:25;;;;;;;;;;;9.50;62.30;;;;;;6275879;22;19935;-70
2024/01/10 06:50:51;;;;;;;;;;;9.50;61.60;;;;;;6276052;22;19923;-69
2024/01/10 06:53:16;;;;;;;;;;;9.80;62.00;;;;;;6275976;22;19907;-70
2024/01/10 06:55:41;;;;;;;;;;;9.50;61.70;;;;;;6276076;22;19903;-70
2024/01/10 06:58:07;;;;;;;;;;;9.50;61.30;;;;;;6276046;22;19989;-69
2024/01/10 07:00:33;;;;;;;;;;;9.50;61.80;;;;;;6276466;22;20468;-69
2024/01/10 07:03:01;;;;;;;;;;;9.50;61.40;;;;;;6248270;22;19951;-69
2024/01/10 07:05:28;;;;;;;;;;;9.80;61.80;;;;;;6275888;22;20285;-70
2024/01/10 07:07:53;;;;;;;;;;;9.90;61.50;;;;;;6275653;22;19937;-69
2024/01/10 07:10:19;;;;;;;;;;;9.70;62.40;;;;;;6275798;22;19990;-70
2024/01/10 07:12:44;;;;;;;;;;;10.10;62.00;;;;;;6275867;22;19904;-68
2024/01/10 07:15:11;;;;;;;;;;;9.50;61.70;;;;;;6275774;22;20015;-76
2024/01/10 07:17:37;;;;;;;;;;;9.40;61.00;;;;;;6275825;22;19944;-69
2024/01/10 07:20:03;;;;;;;;;;;9.60;61.60;;;;;;6275659;22;19907;-69
2024/01/10 07:22:28;;;;;;;;;;;9.40;60.60;;;;;;6275626;22;19903;-69
2024/01/10 07:24:54;;;;;;;;;;;9.50;61.50;;;;;;6275688;22;19985;-69
2024/01/10 07:27:19;;;;;;;;;;;10.10;62.00;;;;;;6275711;22;19903;-69
2024/01/10 07:29:46;;;;;;;;;;;10.00;61.90;;;;;;6276487;22;19911;-69
2024/01/10 07:32:13;;;;;;;;;;;9.40;61.50;;;;;;6276293;22;19915;-69
2024/01/10 07:34:39;;;;;;;;;;;10.10;62.00;;;;;;6275875;22;19974;-69
2024/01/10 07:37:05;;;;;;;;;;;9.50;61.80;;;;;;6276248;22;19911;-70
2024/01/10 07:39:31;;;;;;;;;;;9.40;61.40;;;;;;6276571;22;19915;-70
2024/01/10 07:41:56;;;;;;;;;;;10.20;62.20;;;;;;6275734;22;19903;-69
2024/01/10 07:44:22;;;;;;;;;;;9.60;61.70;;;;;;6275595;22;19934;-70
2024/01/10 07:46:47;;;;;;;;;;;9.40;61.60;;;;;;6276164;22;19949;-71
2024/01/10 07:49:16;;;;;;;;;;;9.50;61.60;;;;;;6275451;22;19918;-71
2024/01/10 07:51:42;;;;;;;;;;;9.40;61.60;;;;;;6275358;22;19927;-69
2024/01/10 07:54:07;;;;;;;;;;;9.40;61.70;;;;;;6275567;22;19903;-72
2024/01/10 07:56:33;;;;;;;;;;;9.40;61.20;;;;;;6275544;22;20470;-70
2024/01/10 07:58:58;;;;;;;;;;;9.40;61.60;;;;;;6276055;22;20392;-70
2024/01/10 08:01:24;;;;;;;;;;;9.40;61.20;;;;;;6275235;22;19945;-71
2024/01/10 08:03:49;;;;;;;;;;;9.90;62.00;;;;;;6275162;22;19986;-69
2024/01/10 08:06:15;;;;;;;;;;;10.10;62.10;;;;;;6275689;22;19904;-68
2024/01/10 08:08:41;;;;;;;;;;;9.40;61.30;;;;;;6275813;22;19915;-68
2024/01/10 08:11:06;;;;;;;;;;;9.40;61.40;;;;;;6275706;22;19903;-69
2024/01/10 08:13:32;;;;;;;;;;;9.40;61.50;;;;;;6275360;22;19903;-68
2024/01/10 08:15:57;;;;;;;;;;;9.80;61.80;;;;;;6275449;22;19904;-69
2024/01/10 08:18:23;;;;;;;;;;;9.40;61.60;;;;;;6275431;22;19949;-69
2024/01/10 08:20:48;;;;;;;;;;;9.40;61.20;;;;;;6275447;22;19911;-69
2024/01/10 08:23:14;;;;;;;;;;;9.50;61.40;;;;;;6275539;22;19938;-68
2024/01/10 08:25:40;;;;;;;;;;;10.10;62.00;;;;;;6276008;22;19985;-69
2024/01/10 08:28:06;;;;;;;;;;;9.30;60.60;;;;;;6275259;22;19910;-70
2024/01/10 08:30:32;;;;;;;;;;;9.40;60.90;;;;;;6275387;22;20273;-70
2024/01/10 08:32:58;;;;;;;;;;;9.40;61.30;;;;;;6275339;22;19907;-70
2024/01/10 08:35:23;;;;;;;;;;;9.30;60.80;;;;;;6275406;22;19911;-71
2024/01/10 08:37:49;;;;;;;;;;;9.40;61.20;;;;;;6275581;22;19958;-71
2024/01/10 08:40:15;;;;;;;;;;;9.50;61.70;;;;;;6275581;22;19903;-71
2024/01/10 08:42:41;;;;;;;;;;;9.50;61.50;;;;;;6277527;22;20374;-72
2024/01/10 08:45:09;;;;;;;;;;;9.90;61.60;;;;;;6250112;22;19977;-72
2024/01/10 08:47:35;;;;;;;;;;;9.40;60.40;;;;;;6277523;22;19914;-73
2024/01/10 08:50:01;;;;;;;;;;;10.10;61.80;;;;;;6277441;22;19915;-72
2024/01/10 08:52:26;;;;;;;;;;;9.50;61.60;;;;;;6277633;22;20283;-71
2024/01/10 08:54:52;;;;;;;;;;;9.50;61.70;;;;;;6278065;22;19907;-70
2024/01/10 08:57:17;;;;;;;;;;;10.10;62.00;;;;;;6277448;22;19939;-70
2024/01/10 08:59:43;;;;;;;;;;;9.50;61.80;;;;;;6277532;22;20323;-72
2024/01/10 09:02:09;;;;;;;;;;;9.40;61.20;;;;;;6277380;22;19976;-71
2024/01/10 09:04:34;;;;;;;;;;;9.60;62.00;;;;;;6277426;22;19922;-70
2024/01/10 09:07:00;;;;;;;;;;;9.40;61.60;;;;;;6250292;22;19934;-69
2024/01/10 09:09:25;;;;;;;;;;;10.10;62.00;;;;;;6277312;22;19911;-70
2024/01/10 09:11:51;;;;;;;;;;;9.60;61.80;;;;;;6277387;22;19907;-72
2024/01/10 09:14:16;;;;;;;;;;;10.10;62.00;;;;;;6277682;22;19977;-71
2024/01/10 09:16:42;;;;;;;;;;;9.50;61.60;;;;;;6277198;22;20300;-71
2024/01/10 09:19:07;;;;;;;;;;;9.70;61.80;;;;;;6277253;22;19903;-72
2024/01/10 09:21:33;;;;;;;;;;;10.20;61.60;;;;;;6277235;22;20338;-71
2024/01/10 09:23:58;;;;;;;;;;;9.50;61.30;;;;;;6277752;22;19941;-71
2024/01/10 09:26:24;;;;;;;;;;;9.50;61.50;;;;;;6277324;22;20346;-71
2024/01/10 09:28:49;;;;;;;;;;;9.50;61.60;;;;;;6276858;22;19911;-70
2024/01/10 09:31:15;;;;;;;;;;;9.50;61.40;;;;;;6277046;22;20204;-69
2024/01/10 09:33:40;;;;;;;;;;;9.40;61.20;;;;;;6277031;22;19907;-69
2024/01/10 09:36:06;;;;;;;;;;;9.50;61.00;;;;;;6277690;22;19904;-69
2024/01/10 09:38:37;;;;;;;;;;;9.60;60.40;;;;;;6277056;22;19903;-69
2024/01/10 09:41:04;;;;;;;;;;;9.50;60.90;;;;;;6277038;22;20341;-69
2024/01/10 09:43:30;;;;;;;;;;;9.40;60.70;;;;;;6287200;22;19903;-69
2024/01/10 09:45:57;;;;;;;;;;;9.80;61.50;;;;;;6277130;22;19903;-69
2024/01/10 09:48:22;;;;;;;;;;;10.10;61.60;;;;;;6276922;22;19957;-69
2024/01/10 09:50:50;;;;;;;;;;;9.50;61.40;;;;;;6277083;22;19945;-70
2024/01/10 09:53:23;;;;;;;;;;;9.60;61.50;;;;;;6277381;22;20476;-70
2024/01/10 09:55:49;;;;;;;;;;;9.50;61.00;;;;;;6276910;22;19903;-69
2024/01/10 09:58:15;;;;;;;;;;;10.20;61.60;;;;;;6276776;22;19938;-69
2024/01/10 10:00:40;;;;;;;;;;;9.90;61.40;;;;;;6276814;22;19981;-69
2024/01/10 10:03:12;;;;;;;;;;;9.60;60.90;;;;;;6276495;22;20250;-69
2024/01/10 10:05:37;;;;;;;;;;;9.60;56.60;;;;;;6276852;22;19903;-70
2024/01/10 10:08:06;;;;;;;;;;;10.30;61.70;;;;;;6277104;22;19958;-69
2024/01/10 10:10:32;;;;;;;;;;;9.90;59.90;;;;;;6276882;22;20183;-69
2024/01/10 10:12:57;;;;;;;;;;;9.90;61.10;;;;;;6276541;22;19910;-69
2024/01/10 10:15:25;;;;;;;;;;;10.40;61.60;;;;;;6276520;22;19957;-69
2024/01/10 10:17:53;;;;;;;;;;;9.90;61.30;;;;;;6276524;22;19915;-69
2024/01/10 10:20:22;;;;;;;;;;;10.40;61.20;;;;;;6276987;22;19904;-69
2024/01/10 10:22:57;;;;;;;;;;;9.90;56.20;;;;;;6286780;22;19903;-71
2024/01/10 10:25:23;;;;;;;;;;;9.90;55.90;;;;;;6276393;22;19903;-70
2024/01/10 10:27:52;;;;;;;;;;;9.70;60.30;;;;;;6276525;22;19927;-69
2024/01/10 10:30:17;;;;;;;;;;;10.00;60.70;;;;;;6276293;22;19911;-69
2024/01/10 10:32:43;;;;;;;;;;;10.00;59.80;;;;;;6249337;22;19941;-70
2024/01/10 10:35:08;;;;;;;;;;;10.40;60.80;;;;;;6277029;22;19904;-69
2024/01/10 10:37:34;;;;;;;;;;;10.20;60.40;;;;;;6276246;22;20319;-70
2024/01/10 10:39:59;;;;;;;;;;;10.20;60.50;;;;;;6276385;22;19903;-70
2024/01/10 10:42:28;;;;;;;;;;;10.10;60.50;;;;;;6276286;22;19907;-69
2024/01/10 10:44:56;;;;;;;;;;;10.60;60.80;;;;;;6276234;22;19910;-70
2024/01/10 10:47:24;;;;;;;;;;;10.50;60.50;;;;;;6276254;22;19910;-69
2024/01/10 10:49:52;;;;;;;;;;;10.30;60.00;;;;;;6276691;22;19957;-69
2024/01/10 10:52:19;;;;;;;;;;;10.30;60.20;;;;;;6276058;22;20227;-69
2024/01/10 10:54:46;;;;;;;;;;;10.40;60.40;;;;;;6276169;22;20021;-69
2024/01/10 10:57:12;;;;;;;;;;;10.40;60.10;;;;;;6276113;22;19903;-69
2024/01/10 10:59:38;;;;;;;;;;;10.40;59.80;;;;;;6276123;22;20352;-69
2024/01/10 11:02:06;;;;;;;;;;;10.50;59.70;;;;;;6276027;22;19956;-72
2024/01/10 11:04:32;;;;;;;;;;;10.50;60.10;;;;;;6275423;22;19994;-68
2024/01/10 11:06:57;;;;;;;;;;;10.60;59.90;;;;;;6276363;22;19941;-70
2024/01/10 11:09:23;;;;;;;;;;;10.60;60.00;;;;;;6275839;22;19917;-71
2024/01/10 11:11:52;;;;;;;;;;;10.70;60.00;;;;;;6276424;22;20222;-71
2024/01/10 11:14:17;;;;;;;;;;;10.80;55.30;;;;;;6275917;22;19907;-70
2024/01/10 11:16:56;;;;;;;;;;;10.70;59.80;;;;;;6276354;22;20020;-71
2024/01/10 11:19:40;;;;;;;;;;;10.70;55.30;;;;;;6286544;22;20269;-70
2024/01/10 11:22:06;;;;;;;;;;;10.90;55.30;;;;;;6286120;22;19974;-70
2024/01/10 11:24:32;;;;;;;;;;;10.80;60.00;;;;;;6276171;22;19973;-70
2024/01/10 11:27:13;;;;;;;;;;;10.90;60.30;;;;;;6275771;22;19972;-70
2024/01/10 11:29:39;;;;;;;;;;;10.90;55.30;;;;;;6275552;22;19934;-70
2024/01/10 11:32:15;;;;;;;;;;;11.00;59.80;;;;;;6275626;22;19939;-70
2024/01/10 11:34:52;;;;;;;;;;;11.00;55.50;;;;;;6275757;22;19903;-71
2024/01/10 11:37:18;;;;;;;;;;;11.10;55.10;;;;;;6275765;22;20330;-70
2024/01/10 11:39:44;;;;;;;;;;;11.30;59.80;;;;;;6248531;22;19950;-76
2024/01/10 11:42:09;;;;;;;;;;;11.30;59.80;;;;;;6275771;22;20234;-70
2024/01/10 11:44:46;;;;;;;;;;;11.20;59.70;;;;;;6275594;22;19904;-70
2024/01/10 11:47:13;;;;;;;;;;;11.20;59.70;;;;;;6276273;22;19990;-70
2024/01/10 11:49:38;;;;;;;;;;;11.30;59.90;;;;;;6275462;22;20334;-70
2024/01/10 11:52:04;;;;;;;;;;;11.50;59.80;;;;;;6275580;22;19907;-70
2024/01/10 11:54:36;;;;;;;;;;;11.30;59.30;;;;;;6275595;22;19926;-70
2024/01/10 11:57:02;;;;;;;;;;;11.40;55.00;;;;;;6275578;22;19938;-73
2024/01/10 11:59:27;;;;;;;;;;;11.50;59.50;;;;;;6275541;22;19934;-70
2024/01/10 12:01:54;;;;;;;;;;;11.50;59.60;;;;;;6275380;22;20289;-70
2024/01/10 12:04:19;;;;;;;;;;;11.50;59.70;;;;;;6275469;22;19994;-71
2024/01/10 12:06:45;;;;;;;;;;;11.60;59.90;;;;;;6275409;22;20522;-70
2024/01/10 12:09:13;;;;;;;;;;;11.60;59.80;;;;;;6275214;22;19915;-70
2024/01/10 12:11:41;;;;;;;;;;;11.70;59.80;;;;;;6275445;22;19939;-70
2024/01/10 12:14:10;;;;;;;;;;;11.70;59.20;;;;;;6276060;22;19986;-78
2024/01/10 12:16:36;;;;;;;;;;;11.80;55.10;;;;;;6275367;22;19903;-78
2024/01/10 12:19:02;;;;;;;;;;;11.80;59.30;;;;;;6275377;22;19903;-79
2024/01/10 12:21:27;;;;;;;;;;;11.80;59.70;;;;;;6275457;22;19985;-78
2024/01/10 12:23:53;;;;;;;;;;;11.80;59.70;;;;;;6275346;22;20349;-79
2024/01/10 12:26:18;;;;;;;;;;;11.90;59.70;;;;;;6275455;22;20266;-78
2024/01/10 12:28:57;;;;;;;;;;;11.90;59.50;;;;;;6275491;22;19919;-79
2024/01/10 12:31:23;;;;;;;;;;;12.10;55.00;;;;;;6276174;22;20230;-79
2024/01/10 12:33:49;;;;;;;;;;;12.10;60.00;;;;;;6275522;22;19903;-78
2024/01/10 12:36:16;;;;;;;;;;;12.10;59.00;;;;;;6275410;22;19910;-78
2024/01/10 12:38:42;;;;;;;;;;;12.00;59.40;;;;;;6276114;22;19910;-78
2024/01/10 12:41:09;;;;;;;;;;;12.00;59.60;;;;;;6275554;22;19903;-78
2024/01/10 12:43:34;;;;;;;;;;;12.10;58.80;;;;;;6276674;22;19911;-70
2024/01/10 12:46:12;;;;;;;;;;;12.20;59.20;;;;;;6275999;22;19927;-70
2024/01/10 12:48:41;;;;;;;;;;;12.20;54.60;;;;;;6275144;22;20192;-71
2024/01/10 12:51:10;;;;;;;;;;;12.30;59.40;;;;;;6275365;22;19911;-70
2024/01/10 12:53:36;;;;;;;;;;;12.20;54.40;;;;;;6275292;22;19939;-70
2024/01/10 12:56:03;;;;;;;;;;;12.30;59.30;;;;;;6275979;22;19931;-79
2024/01/10 12:58:29;;;;;;;;;;;12.30;58.90;;;;;;6248613;22;19903;-78
2024/01/10 13:00:55;;;;;;;;;;;12.40;59.10;;;;;;6275616;22;19903;-78
2024/01/10 13:03:21;;;;;;;;;;;12.30;58.80;;;;;;6275265;22;20292;-78
2024/01/10 13:05:46;;;;;;;;;;;12.50;59.00;;;;;;6275495;22;19903;-78
2024/01/10 13:08:12;;;;;;;;;;;12.40;59.00;;;;;;6275688;22;19904;-78
2024/01/10 13:10:38;;;;;;;;;;;12.50;59.10;;;;;;6276226;22;20334;-70
2024/01/10 13:13:03;;;;;;;;;;;12.50;59.20;;;;;;6275149;22;19911;-69
2024/01/10 13:15:29;;;;;;;;;;;12.40;58.70;;;;;;6275176;22;19903;-68
2024/01/10 13:17:55;;;;;;;;;;;12.50;58.80;;;;;;6275097;22;19911;-68
2024/01/10 13:20:21;;;;;;;;;;;12.60;58.90;;;;;;6275060;22;19982;-69
2024/01/10 13:22:46;;;;;;;;;;;12.60;58.70;;;;;;6275186;22;19904;-68
2024/01/10 13:25:12;;;;;;;;;;;12.60;58.90;;;;;;6275031;22;19910;-68
2024/01/10 13:27:38;;;;;;;;;;;12.60;58.80;;;;;;6276016;22;19941;-68
2024/01/10 13:30:05;;;;;;;;;;;12.60;58.80;;;;;;6277290;22;19960;-68
2024/01/10 13:32:31;;;;;;;;;;;12.70;57.10;;;;;;6276788;22;19990;-69
2024/01/10 13:34:57;;;;;;;;;;;12.70;58.70;;;;;;6276819;22;19938;-68
2024/01/10 13:37:23;;;;;;;;;;;12.80;58.80;;;;;;6277411;22;19907;-68
2024/01/10 13:39:48;;;;;;;;;;;12.70;58.80;;;;;;6277338;22;20346;-68
2024/01/10 13:42:14;;;;;;;;;;;12.70;58.70;;;;;;6276778;22;19903;-68
2024/01/10 13:44:40;;;;;;;;;;;12.70;58.70;;;;;;6276775;22;19907;-70
2024/01/10 13:47:06;;;;;;;;;;;12.90;58.80;;;;;;6277207;22;20315;-70
2024/01/10 13:49:31;;;;;;;;;;;12.90;58.80;;;;;;6276606;22;20327;-70
2024/01/10 13:51:57;;;;;;;;;;;12.90;58.50;;;;;;6276742;22;19956;-67
2024/01/10 13:54:22;;;;;;;;;;;12.90;58.50;;;;;;6276554;22;20033;-69
2024/01/10 13:56:48;;;;;;;;;;;12.90;58.80;;;;;;6286878;22;19977;-68
2024/01/10 13:59:13;;;;;;;;;;;12.90;58.30;;;;;;6276572;22;19954;-69
2024/01/10 14:01:39;;;;;;;;;;;12.90;58.20;;;;;;6276523;22;20323;-69
2024/01/10 14:04:05;;;;;;;;;;;12.90;58.50;;;;;;6276358;22;19967;-68
2024/01/10 14:06:31;;;;;;;;;;;13.00;58.60;;;;;;6277113;22;19995;-68
2024/01/10 14:08:57;;;;;;;;;;;13.00;58.80;;;;;;6276923;22;20065;-75
2024/01/10 14:11:24;;;;;;;;;;;13.00;57.90;;;;;;6276510;22;19910;-76
2024/01/10 14:13:49;;;;;;;;;;;14.20;59.90;;;;;;6276554;22;19904;-74